createdAt,value
2019-05-28T00:00:02.824Z,14.70
2019-05-28T00:02:43.012Z,14.50
2019-05-28T00:05:11.339Z,14.50
2019-05-28T00:07:59.046Z,14.50
2019-05-28T00:10:41.011Z,14.50
2019-05-28T00:13:21.996Z,14.30
2019-05-28T00:16:03.120Z,14.40
2019-05-28T00:18:44.418Z,14.30
2019-05-28T00:21:25.228Z,14.30
2019-05-28T00:24:05.334Z,14.10
2019-05-28T00:26:45.485Z,14.20
2019-05-28T00:29:25.735Z,14.10
2019-05-28T00:32:05.765Z,14.00
2019-05-28T00:34:45.847Z,14.10
2019-05-28T00:37:26.997Z,14.20
2019-05-28T00:39:55.149Z,14.20
2019-05-28T00:42:43.706Z,14.30
2019-05-28T00:45:25.422Z,14.30
2019-05-28T00:48:06.262Z,14.30
2019-05-28T00:50:47.422Z,14.20
2019-05-28T00:53:28.447Z,14.60
2019-05-28T00:56:08.425Z,14.50
2019-05-28T00:58:48.394Z,14.50
2019-05-28T01:01:28.456Z,14.50
2019-05-28T01:04:08.221Z,14.60
2019-05-28T01:06:47.987Z,14.70
2019-05-28T01:09:32.021Z,14.70
2019-05-28T01:12:13.043Z,14.80
2019-05-28T01:14:57.375Z,14.80
2019-05-28T01:17:39.025Z,14.80
2019-05-28T01:20:20.137Z,14.60
2019-05-28T01:23:01.689Z,14.90
2019-05-28T01:25:43.228Z,15.00
2019-05-28T01:28:23.256Z,14.90
2019-05-28T01:30:57.688Z,14.90
2019-05-28T01:33:49.826Z,14.90
2019-05-28T01:36:29.669Z,14.80
2019-05-28T01:39:09.907Z,14.80
2019-05-28T01:41:37.199Z,15.00
2019-05-28T01:44:23.981Z,14.90
2019-05-28T01:47:05.728Z,14.70
2019-05-28T01:49:46.883Z,14.60
2019-05-28T01:52:28.144Z,14.60
2019-05-28T01:55:08.712Z,14.90
2019-05-28T01:57:49.762Z,14.90
2019-05-28T02:00:31.162Z,14.90
2019-05-28T02:03:10.782Z,15.00
2019-05-28T02:05:50.577Z,15.00
2019-05-28T02:08:30.838Z,14.90
2019-05-28T02:11:10.787Z,14.90
2019-05-28T02:13:51.192Z,14.90
2019-05-28T02:16:19.473Z,14.70
2019-05-28T02:19:08.073Z,14.80
2019-05-28T02:21:50.795Z,14.70
2019-05-28T02:24:31.331Z,14.80
2019-05-28T02:27:12.666Z,14.80
2019-05-28T02:29:53.726Z,14.80
2019-05-28T02:32:34.590Z,14.90
2019-05-28T02:35:15.621Z,14.80
2019-05-28T02:37:55.711Z,14.70
2019-05-28T02:40:35.339Z,14.70
2019-05-28T02:43:15.111Z,14.60
2019-05-28T02:45:55.267Z,14.60
2019-05-28T02:48:35.430Z,14.50
2019-05-28T02:51:16.233Z,14.50
2019-05-28T02:53:57.331Z,14.50
2019-05-28T03:00:00.314Z,14.80
2019-05-28T03:02:47.410Z,14.90
2019-05-28T03:05:27.102Z,14.70
2019-05-28T03:08:07.231Z,14.80
2019-05-28T03:11:02.527Z,14.80
2019-05-28T03:13:29.389Z,14.90
2019-05-28T03:16:10.499Z,14.90
2019-05-28T03:18:51.538Z,14.80
2019-05-28T03:21:41.285Z,14.70
2019-05-28T03:24:30.726Z,14.70
2019-05-28T03:27:12.205Z,14.70
2019-05-28T03:29:52.907Z,14.60
2019-05-28T03:32:32.998Z,14.90
2019-05-28T03:35:12.717Z,14.80
2019-05-28T03:37:53.058Z,14.80
2019-05-28T03:40:32.906Z,14.70
2019-05-28T03:43:00.134Z,14.50
2019-05-28T03:45:47.185Z,14.50
2019-05-28T03:48:29.098Z,14.50
2019-05-28T03:51:10.235Z,14.40
2019-05-28T03:53:51.299Z,14.60
2019-05-28T03:56:32.121Z,14.70
2019-05-28T03:59:13.070Z,14.70
2019-05-28T04:01:54.179Z,14.70
2019-05-28T04:04:35.192Z,14.80
2019-05-28T04:07:15.026Z,14.70
2019-05-28T04:09:55.102Z,14.70
2019-05-28T04:12:34.778Z,14.40
2019-05-28T04:15:15.117Z,14.50
2019-05-28T04:17:55.423Z,14.60
2019-05-28T04:20:36.142Z,14.60
2019-05-28T04:26:29.633Z,14.70
2019-05-28T04:29:18.452Z,14.80
2019-05-28T04:32:05.814Z,14.80
2019-05-28T04:34:45.889Z,14.70
2019-05-28T04:37:25.902Z,14.70
2019-05-28T04:40:05.945Z,14.70
2019-05-28T04:42:33.405Z,14.70
2019-05-28T04:45:20.368Z,14.70
2019-05-28T04:48:01.888Z,14.80
2019-05-28T04:50:43.143Z,14.80
2019-05-28T04:53:24.306Z,14.90
2019-05-28T04:56:05.160Z,14.60
2019-05-28T04:58:45.930Z,14.40
2019-05-28T05:01:27.243Z,14.20
2019-05-28T05:04:07.940Z,14.30
2019-05-28T05:06:47.923Z,14.10
2019-05-28T05:09:27.900Z,14.20
2019-05-28T05:12:08.309Z,14.30
2019-05-28T05:14:48.259Z,14.40
2019-05-28T05:17:15.468Z,14.40
2019-05-28T05:20:02.384Z,14.50
2019-05-28T05:22:44.260Z,14.50
2019-05-28T05:25:25.563Z,14.40
2019-05-28T05:28:06.284Z,14.60
2019-05-28T05:30:47.254Z,14.60
2019-05-28T05:33:28.274Z,14.60
2019-05-28T05:36:09.378Z,14.60
2019-05-28T05:38:50.733Z,14.60
2019-05-28T05:41:30.641Z,14.60
2019-05-28T05:44:10.685Z,14.80
2019-05-28T05:46:50.624Z,14.80
2019-05-28T05:49:30.679Z,14.70
2019-05-28T05:52:10.803Z,14.90
2019-05-28T05:54:51.467Z,14.80
2019-05-28T05:57:19.509Z,14.80
2019-05-28T06:00:11.476Z,14.90
2019-05-28T06:03:09.848Z,14.90
2019-05-28T06:05:50.914Z,14.90
2019-05-28T06:08:31.820Z,15.00
2019-05-28T06:11:12.092Z,15.10
2019-05-28T06:13:52.151Z,14.90
2019-05-28T06:16:32.496Z,15.00
2019-05-28T06:19:00.052Z,14.80
2019-05-28T06:21:46.971Z,15.10
2019-05-28T06:24:26.676Z,15.10
2019-05-28T06:27:07.842Z,14.80
2019-05-28T06:29:48.794Z,15.10
2019-05-28T06:32:33.172Z,15.20
2019-05-28T06:35:12.622Z,15.20
2019-05-28T06:37:53.667Z,15.20
2019-05-28T06:40:34.002Z,15.50
2019-05-28T06:43:14.120Z,15.50
2019-05-28T06:45:58.367Z,15.80
2019-05-28T06:48:41.236Z,15.80
2019-05-28T06:51:21.752Z,15.90
2019-05-28T06:54:01.898Z,16.00
2019-05-28T06:56:42.951Z,16.00
2019-05-28T06:59:23.791Z,16.10
2019-05-28T07:02:04.631Z,15.90
2019-05-28T07:04:45.782Z,16.10
2019-05-28T07:07:26.842Z,16.20
2019-05-28T07:09:55.523Z,16.30
2019-05-28T07:12:43.982Z,16.40
2019-05-28T07:15:23.429Z,16.40
2019-05-28T07:18:03.837Z,16.10
2019-05-28T07:20:43.463Z,16.20
2019-05-28T07:23:23.406Z,16.10
2019-05-28T07:26:03.409Z,16.30
2019-05-28T07:28:44.648Z,16.60
2019-05-28T07:31:25.944Z,16.70
2019-05-28T07:34:06.929Z,16.80
2019-05-28T07:36:48.214Z,16.90
2019-05-28T07:39:29.382Z,17.10
2019-05-28T07:42:10.188Z,16.80
2019-05-28T07:44:51.038Z,16.90
2019-05-28T07:47:31.150Z,16.70
2019-05-28T07:49:58.180Z,17.10
2019-05-28T07:52:38.156Z,17.30
2019-05-28T07:55:18.110Z,17.40
2019-05-28T07:57:58.279Z,17.60
2019-05-28T08:00:38.462Z,17.80
2019-05-28T08:03:19.695Z,18.10
2019-05-28T08:06:00.699Z,17.90
2019-05-28T08:08:41.814Z,18.00
2019-05-28T08:11:23.070Z,18.10
2019-05-28T08:13:52.584Z,18.10
2019-05-28T08:16:59.436Z,18.10
2019-05-28T08:19:39.345Z,17.90
2019-05-28T08:22:19.342Z,17.90
2019-05-28T08:24:59.374Z,17.50
2019-05-28T08:27:42.658Z,17.30
2019-05-28T08:30:22.719Z,17.20
2019-05-28T08:33:03.871Z,17.60
2019-05-28T08:35:44.970Z,17.50
2019-05-28T08:38:26.014Z,17.50
2019-05-28T08:40:54.165Z,17.20
2019-05-28T08:43:42.617Z,17.10
2019-05-28T08:46:24.182Z,17.20
2019-05-28T08:49:05.644Z,17.10
2019-05-28T08:51:45.757Z,17.20
2019-05-28T08:54:25.859Z,17.30
2019-05-28T08:57:05.967Z,17.30
2019-05-28T08:59:46.192Z,17.10
2019-05-28T09:02:28.490Z,17.10
2019-05-28T09:05:25.046Z,17.30
2019-05-28T09:07:51.126Z,17.20
2019-05-28T09:10:32.035Z,16.90
2019-05-28T09:13:13.124Z,16.70
2019-05-28T09:15:54.304Z,17.00
2019-05-28T09:18:35.369Z,17.00
2019-05-28T09:21:16.175Z,17.00
2019-05-28T09:23:56.722Z,17.00
2019-05-28T09:26:24.054Z,16.70
2019-05-28T09:29:11.146Z,16.60
2019-05-28T09:31:51.712Z,16.40
2019-05-28T09:34:31.649Z,16.30
2019-05-28T09:37:13.024Z,16.40
2019-05-28T09:39:53.383Z,16.40
2019-05-28T09:42:34.714Z,16.10
2019-05-28T09:45:23.440Z,16.20
2019-05-28T09:47:57.904Z,16.20
2019-05-28T09:50:38.822Z,16.10
2019-05-28T09:53:20.019Z,16.00
2019-05-28T09:55:59.811Z,16.00
2019-05-28T09:58:39.784Z,16.10
2019-05-28T10:01:07.161Z,16.20
2019-05-28T10:03:54.381Z,16.20
2019-05-28T10:06:37.298Z,16.40
2019-05-28T10:09:16.005Z,16.60
2019-05-28T10:11:57.030Z,16.90
2019-05-28T10:14:38.074Z,17.10
2019-05-28T10:17:19.383Z,17.70
2019-05-28T10:19:59.960Z,17.90
2019-05-28T10:22:40.918Z,17.80
2019-05-28T10:25:21.828Z,17.70
2019-05-28T10:28:02.943Z,17.20
2019-05-28T10:30:47.363Z,16.70
2019-05-28T10:33:27.453Z,16.40
2019-05-28T10:36:07.412Z,16.30
2019-05-28T10:38:47.412Z,16.00
2019-05-28T10:41:27.573Z,15.90
2019-05-28T10:44:08.705Z,15.50
2019-05-28T10:46:36.747Z,15.40
2019-05-28T10:49:25.314Z,15.30
2019-05-28T10:52:06.723Z,14.80
2019-05-28T10:54:47.796Z,14.60
2019-05-28T10:57:28.651Z,14.50
2019-05-28T11:00:09.880Z,14.60
2019-05-28T11:02:50.056Z,14.70
2019-05-28T11:05:30.167Z,14.60
2019-05-28T11:08:10.218Z,14.70
2019-05-28T11:10:50.547Z,14.70
2019-05-28T11:13:30.543Z,14.70
2019-05-28T11:16:32.580Z,14.80
2019-05-28T11:19:00.686Z,15.00
2019-05-28T11:21:47.603Z,14.30
2019-05-28T11:24:27.599Z,13.50
2019-05-28T11:27:07.405Z,12.30
2019-05-28T11:29:47.399Z,11.10
2019-05-28T11:32:28.305Z,9.70
2019-05-28T11:35:09.485Z,8.80
2019-05-28T11:37:50.809Z,8.50
2019-05-28T11:40:31.779Z,8.70
2019-05-28T11:43:12.892Z,9.00
2019-05-28T11:45:53.865Z,9.00
2019-05-28T11:48:33.908Z,9.40
2019-05-28T11:51:14.024Z,9.70
2019-05-28T11:53:53.817Z,9.90
2019-05-28T11:56:33.894Z,10.40
2019-05-28T11:59:13.977Z,10.80
2019-05-28T12:01:55.034Z,11.00
2019-05-28T12:04:37.018Z,11.10
2019-05-28T12:07:26.228Z,11.20
2019-05-28T12:10:01.094Z,11.50
2019-05-28T12:12:42.042Z,11.90
2019-05-28T12:15:23.016Z,12.20
2019-05-28T12:18:04.346Z,12.20
2019-05-28T12:20:44.246Z,11.90
2019-05-28T12:23:24.627Z,11.70
2019-05-28T12:26:04.500Z,11.70
2019-05-28T12:28:44.572Z,11.60
2019-05-28T12:31:24.479Z,11.80
2019-05-28T12:34:05.530Z,12.00
2019-05-28T12:36:46.621Z,12.50
2019-05-28T12:39:27.889Z,12.90
2019-05-28T12:42:09.237Z,13.40
2019-05-28T12:44:42.316Z,13.80
2019-05-28T12:47:32.380Z,14.00
2019-05-28T12:50:17.954Z,14.00
2019-05-28T12:52:57.398Z,14.40
2019-05-28T12:55:37.180Z,14.80
2019-05-28T12:58:18.567Z,14.80
2019-05-28T13:00:58.833Z,14.60
2019-05-28T13:03:38.640Z,14.70
2019-05-28T13:06:18.758Z,14.20
2019-05-28T13:08:59.970Z,14.30
2019-05-28T13:11:41.050Z,14.70
2019-05-28T13:14:21.842Z,15.10
2019-05-28T13:16:50.778Z,15.30
2019-05-28T13:19:19.888Z,15.50
2019-05-28T13:22:02.089Z,15.80
2019-05-28T13:24:42.761Z,15.70
2019-05-28T13:27:24.114Z,15.90
2019-05-28T13:30:04.160Z,16.00
2019-05-28T13:32:44.955Z,15.70
2019-05-28T13:35:25.546Z,15.60
2019-05-28T13:38:05.550Z,15.60
2019-05-28T13:40:45.678Z,15.60
2019-05-28T13:43:26.427Z,15.70
2019-05-28T13:46:07.755Z,15.50
2019-05-28T13:48:48.528Z,15.10
2019-05-28T13:51:29.769Z,15.10
2019-05-28T13:53:57.947Z,15.00
2019-05-28T13:56:39.734Z,15.10
2019-05-28T13:59:20.289Z,15.10
2019-05-28T14:02:01.485Z,14.80
2019-05-28T14:04:42.053Z,14.50
2019-05-28T14:07:21.683Z,14.40
2019-05-28T14:10:01.747Z,14.20
2019-05-28T14:12:42.133Z,14.10
2019-05-28T14:15:22.099Z,14.00
2019-05-28T14:17:50.586Z,14.20
2019-05-28T14:20:39.776Z,14.90
2019-05-28T14:23:22.262Z,14.90
2019-05-28T14:26:03.265Z,15.40
2019-05-28T14:28:44.437Z,15.70
2019-05-28T14:31:25.683Z,15.90
2019-05-28T14:34:06.370Z,15.80
2019-05-28T14:36:46.562Z,15.30
2019-05-28T14:39:40.078Z,15.30
2019-05-28T14:42:08.436Z,14.80
2019-05-28T14:44:48.450Z,14.80
2019-05-28T14:47:28.091Z,14.70
2019-05-28T14:50:09.026Z,14.60
2019-05-28T14:52:49.915Z,14.40
2019-05-28T14:55:31.150Z,14.50
2019-05-28T14:58:13.641Z,14.60
2019-05-28T15:00:59.210Z,14.30
2019-05-28T15:03:42.877Z,14.40
2019-05-28T15:06:23.856Z,14.20
2019-05-28T15:09:19.469Z,14.20
2019-05-28T15:11:45.646Z,13.90
2019-05-28T15:14:25.770Z,14.00
2019-05-28T15:17:05.790Z,14.00
2019-05-28T15:19:45.570Z,14.00
2019-05-28T15:22:26.903Z,13.50
2019-05-28T15:25:08.054Z,13.30
2019-05-28T15:27:48.923Z,13.20
2019-05-28T15:30:29.866Z,13.20
2019-05-28T15:33:11.082Z,13.10
2019-05-28T15:35:55.927Z,13.10
2019-05-28T15:38:35.266Z,13.10
2019-05-28T15:41:15.022Z,13.10
2019-05-28T15:43:55.425Z,13.00
2019-05-28T15:46:22.692Z,13.00
2019-05-28T15:49:09.570Z,12.90
2019-05-28T15:51:49.666Z,12.80
2019-05-28T15:54:30.730Z,12.80
2019-05-28T15:57:11.868Z,12.80
2019-05-28T15:59:53.379Z,12.70
2019-05-28T16:02:34.234Z,12.70
2019-05-28T16:05:15.475Z,12.60
2019-05-28T16:07:56.331Z,12.60
2019-05-28T16:10:37.534Z,12.70
2019-05-28T16:13:17.363Z,12.70
2019-05-28T16:15:57.422Z,12.80
2019-05-28T16:18:36.795Z,12.80
2019-05-28T16:21:16.858Z,12.60
2019-05-28T16:23:57.055Z,12.60
2019-05-28T16:26:38.443Z,12.70
2019-05-28T16:29:19.351Z,12.80
2019-05-28T16:32:00.536Z,12.70
2019-05-28T16:34:40.967Z,12.90
2019-05-28T16:37:22.040Z,12.90
2019-05-28T16:40:14.184Z,13.00
2019-05-28T16:42:46.186Z,13.00
2019-05-28T16:45:26.237Z,12.90
2019-05-28T16:48:09.393Z,13.20
2019-05-28T16:50:49.450Z,13.20
2019-05-28T16:53:29.555Z,13.20
2019-05-28T16:56:09.787Z,13.20
2019-05-28T16:58:50.854Z,13.30
2019-05-28T17:01:31.913Z,13.30
2019-05-28T17:04:13.067Z,13.10
2019-05-28T17:06:53.999Z,13.40
2019-05-28T17:09:35.055Z,13.30
2019-05-28T17:12:16.192Z,13.40
2019-05-28T17:14:57.234Z,13.30
2019-05-28T17:17:37.326Z,13.20
2019-05-28T17:20:17.239Z,13.20
2019-05-28T17:22:57.363Z,13.30
2019-05-28T17:25:37.395Z,13.30
2019-05-28T17:28:17.450Z,13.30
2019-05-28T17:30:57.534Z,13.40
2019-05-28T17:33:38.817Z,13.20
2019-05-28T17:36:20.018Z,13.20
2019-05-28T17:39:00.965Z,13.10
2019-05-28T17:41:28.923Z,13.20
2019-05-28T17:44:17.118Z,13.20
2019-05-28T17:46:58.724Z,13.40
2019-05-28T17:49:39.954Z,13.20
2019-05-28T17:52:19.905Z,13.10
2019-05-28T17:54:59.875Z,12.90
2019-05-28T17:57:39.953Z,13.10
2019-05-28T18:00:20.135Z,13.10
2019-05-28T18:02:59.966Z,13.00
2019-05-28T18:05:40.953Z,12.90
2019-05-28T18:08:21.970Z,12.80
2019-05-28T18:11:04.749Z,12.80
2019-05-28T18:13:45.994Z,12.70
2019-05-28T18:16:27.259Z,12.50
2019-05-28T18:19:07.572Z,12.40
2019-05-28T18:21:35.625Z,12.40
2019-05-28T18:24:24.127Z,12.30
2019-05-28T18:27:03.877Z,12.30
2019-05-28T18:29:44.029Z,12.10
2019-05-28T18:32:30.049Z,12.20
2019-05-28T18:35:12.287Z,12.40
2019-05-28T18:38:03.065Z,12.50
2019-05-28T18:40:36.194Z,12.50
2019-05-28T18:43:17.469Z,12.80
2019-05-28T18:45:58.490Z,12.80
2019-05-28T18:48:39.513Z,12.70
2019-05-28T18:51:20.719Z,12.80
2019-05-28T18:54:00.267Z,12.50
2019-05-28T18:56:40.350Z,12.40
2019-05-28T18:59:20.564Z,12.40
2019-05-28T19:02:00.602Z,12.50
2019-05-28T19:04:40.235Z,12.20
2019-05-28T19:07:22.766Z,12.20
2019-05-28T19:10:03.683Z,12.30
2019-05-28T19:12:44.877Z,12.20
2019-05-28T19:15:25.956Z,12.20
2019-05-28T19:18:06.855Z,12.20
2019-05-28T19:20:48.065Z,12.00
2019-05-28T19:23:29.442Z,12.10
2019-05-28T19:26:09.830Z,12.10
2019-05-28T19:28:49.925Z,12.20
2019-05-28T19:31:30.836Z,12.20
2019-05-28T19:34:10.184Z,12.10
2019-05-28T19:36:50.416Z,12.00
2019-05-28T19:39:30.418Z,12.00
2019-05-28T19:42:11.475Z,12.10
2019-05-28T19:44:52.594Z,12.10
2019-05-28T19:47:33.887Z,12.10
2019-05-28T19:50:15.237Z,12.00
2019-05-28T19:52:57.260Z,12.10
2019-05-28T19:55:38.138Z,12.20
2019-05-28T19:58:18.573Z,12.00
2019-05-28T20:00:58.505Z,12.00
2019-05-28T20:03:38.690Z,12.00
2019-05-28T20:06:18.718Z,12.20
2019-05-28T20:08:58.592Z,12.10
2019-05-28T20:11:38.626Z,12.10
2019-05-28T20:14:19.891Z,12.10
2019-05-28T20:17:00.854Z,12.10
2019-05-28T20:19:41.532Z,12.20
2019-05-28T20:22:22.981Z,12.20
2019-05-28T20:25:03.865Z,12.30
2019-05-28T20:27:45.763Z,12.30
2019-05-28T20:30:26.962Z,12.50
2019-05-28T20:33:07.391Z,12.50
2019-05-28T20:35:46.814Z,12.40
2019-05-28T20:38:27.293Z,12.50
2019-05-28T20:41:08.077Z,12.50
2019-05-28T20:43:48.697Z,12.50
2019-05-28T20:46:29.823Z,12.50
2019-05-28T20:49:11.070Z,12.60
2019-05-28T20:51:52.240Z,12.60
2019-05-28T20:54:33.153Z,12.50
2019-05-28T20:57:14.278Z,12.50
2019-05-28T20:59:55.784Z,12.70
2019-05-28T21:02:36.877Z,12.70
2019-05-28T21:05:16.875Z,12.70
2019-05-28T21:07:58.396Z,12.70
2019-05-28T21:10:38.126Z,12.60
2019-05-28T21:13:18.241Z,12.80
2019-05-28T21:15:58.999Z,12.80
2019-05-28T21:18:40.193Z,12.50
2019-05-28T21:21:21.484Z,12.40
2019-05-28T21:24:02.878Z,12.40
2019-05-28T21:26:43.698Z,12.20
2019-05-28T21:29:25.033Z,12.10
2019-05-28T21:32:06.055Z,12.00
2019-05-28T21:34:47.552Z,11.90
2019-05-28T21:37:27.245Z,11.80
2019-05-28T21:40:07.481Z,11.70
2019-05-28T21:43:00.321Z,11.70
2019-05-28T21:45:29.701Z,11.50
2019-05-28T21:48:09.830Z,11.70
2019-05-28T21:50:50.890Z,11.80
2019-05-28T21:53:19.293Z,11.90
2019-05-28T21:56:01.452Z,11.80
2019-05-28T21:58:42.821Z,11.70
2019-05-28T22:01:23.686Z,11.50
2019-05-28T22:04:04.791Z,11.50
2019-05-28T22:06:46.068Z,11.30
2019-05-28T22:09:27.272Z,11.40
2019-05-28T22:12:08.375Z,11.40
2019-05-28T22:15:17.266Z,11.40
2019-05-28T22:18:04.316Z,11.20
2019-05-28T22:21:05.912Z,11.20
2019-05-28T22:23:47.185Z,11.20
2019-05-28T22:26:27.882Z,11.10
2019-05-28T22:29:09.127Z,11.00
2019-05-28T22:31:49.976Z,10.90
2019-05-28T22:34:30.230Z,10.90
2019-05-28T22:37:09.902Z,10.80
2019-05-28T22:39:49.612Z,10.80
2019-05-28T22:42:29.478Z,11.10
2019-05-28T22:45:09.164Z,11.00
2019-05-28T22:47:50.300Z,10.80
2019-05-28T22:50:35.606Z,10.80
2019-05-28T22:53:16.509Z,10.90
2019-05-28T22:55:57.875Z,10.70
2019-05-28T22:58:38.883Z,10.70
2019-05-28T23:01:19.180Z,10.70
2019-05-28T23:04:00.901Z,10.70
2019-05-28T23:06:42.498Z,10.70
2019-05-28T23:09:22.553Z,10.80
2019-05-28T23:11:49.954Z,10.80
2019-05-28T23:14:36.737Z,10.90
2019-05-28T23:17:16.535Z,10.90
2019-05-28T23:19:56.531Z,11.00
2019-05-28T23:22:36.757Z,11.00
2019-05-28T23:25:17.445Z,10.90
2019-05-28T23:27:58.302Z,11.10
2019-05-28T23:30:39.278Z,10.80
2019-05-28T23:33:20.551Z,10.70
2019-05-28T23:36:02.473Z,10.60
2019-05-28T23:38:43.205Z,10.60
2019-05-28T23:41:24.171Z,10.40
2019-05-28T23:44:01.464Z,10.40
2019-05-28T23:46:50.441Z,10.40
2019-05-28T23:49:30.705Z,10.40
2019-05-28T23:52:10.689Z,10.20
2019-05-28T23:54:50.669Z,10.30
2019-05-28T23:57:31.966Z,10.40
